sensor_id;sensor_type;location;lat;lon;timestamp;P1;durP1;ratioP1;P2;durP2;ratioP2
19207;SDS011;9737;59.466;18.036;2024-03-02T00:01:45;69.30;;;23.30;;
19207;SDS011;9737;59.466;18.036;2024-03-02T00:04:13;61.03;;;21.70;;
19207;SDS011;9737;59.466;18.036;2024-03-02T00:06:41;61.17;;;21.42;;
19207;SDS011;9737;59.466;18.036;2024-03-02T00:09:10;59.22;;;22.33;;
19207;SDS011;9737;59.466;18.036;2024-03-02T00:11:39;54.67;;;21.63;;
19207;SDS011;9737;59.466;18.036;2024-03-02T00:14:07;54.80;;;22.42;;
19207;SDS011;9737;59.466;18.036;2024-03-02T00:16:35;59.50;;;22.05;;
19207;SDS011;9737;59.466;18.036;2024-03-02T00:19:05;66.30;;;21.98;;
19207;SDS011;9737;59.466;18.036;2024-03-02T00:21:34;60.83;;;22.95;;
19207;SDS011;9737;59.466;18.036;2024-03-02T00:24:06;63.08;;;22.95;;
19207;SDS011;9737;59.466;18.036;2024-03-02T00:26:45;71.57;;;24.00;;
19207;SDS011;9737;59.466;18.036;2024-03-02T00:29:13;76.57;;;23.40;;
19207;SDS011;9737;59.466;18.036;2024-03-02T00:31:43;60.05;;;23.17;;
19207;SDS011;9737;59.466;18.036;2024-03-02T00:34:13;69.32;;;23.40;;
19207;SDS011;9737;59.466;18.036;2024-03-02T00:36:42;62.25;;;23.67;;
19207;SDS011;9737;59.466;18.036;2024-03-02T00:39:11;59.63;;;21.48;;
19207;SDS011;9737;59.466;18.036;2024-03-02T00:41:40;62.50;;;24.08;;
19207;SDS011;9737;59.466;18.036;2024-03-02T00:44:10;59.47;;;22.50;;
19207;SDS011;9737;59.466;18.036;2024-03-02T00:46:41;72.43;;;23.90;;
19207;SDS011;9737;59.466;18.036;2024-03-02T00:49:11;75.95;;;24.30;;
19207;SDS011;9737;59.466;18.036;2024-03-02T00:51:50;69.53;;;24.75;;
19207;SDS011;9737;59.466;18.036;2024-03-02T00:54:20;77.30;;;24.15;;
19207;SDS011;9737;59.466;18.036;2024-03-02T00:56:50;71.78;;;24.65;;
19207;SDS011;9737;59.466;18.036;2024-03-02T00:59:18;69.97;;;25.10;;
19207;SDS011;9737;59.466;18.036;2024-03-02T01:01:49;68.15;;;23.60;;
19207;SDS011;9737;59.466;18.036;2024-03-02T01:04:19;69.95;;;24.73;;
19207;SDS011;9737;59.466;18.036;2024-03-02T01:06:47;65.47;;;25.38;;
19207;SDS011;9737;59.466;18.036;2024-03-02T01:09:15;76.28;;;26.25;;
19207;SDS011;9737;59.466;18.036;2024-03-02T01:11:44;67.05;;;25.02;;
19207;SDS011;9737;59.466;18.036;2024-03-02T01:14:12;69.03;;;25.00;;
19207;SDS011;9737;59.466;18.036;2024-03-02T01:16:40;88.15;;;26.50;;
19207;SDS011;9737;59.466;18.036;2024-03-02T01:19:08;67.85;;;24.83;;
19207;SDS011;9737;59.466;18.036;2024-03-02T01:21:38;81.78;;;26.83;;
19207;SDS011;9737;59.466;18.036;2024-03-02T01:24:07;74.53;;;26.38;;
19207;SDS011;9737;59.466;18.036;2024-03-02T01:26:35;67.57;;;24.92;;
19207;SDS011;9737;59.466;18.036;2024-03-02T01:29:03;72.20;;;24.63;;
19207;SDS011;9737;59.466;18.036;2024-03-02T01:31:31;70.28;;;25.75;;
19207;SDS011;9737;59.466;18.036;2024-03-02T01:33:59;68.75;;;24.52;;
19207;SDS011;9737;59.466;18.036;2024-03-02T01:36:28;65.15;;;24.80;;
19207;SDS011;9737;59.466;18.036;2024-03-02T01:38:57;68.85;;;25.15;;
19207;SDS011;9737;59.466;18.036;2024-03-02T01:41:25;71.65;;;24.23;;
19207;SDS011;9737;59.466;18.036;2024-03-02T01:43:54;71.32;;;25.45;;
19207;SDS011;9737;59.466;18.036;2024-03-02T01:46:22;72.05;;;24.17;;
19207;SDS011;9737;59.466;18.036;2024-03-02T01:48:51;72.25;;;24.13;;
19207;SDS011;9737;59.466;18.036;2024-03-02T01:51:19;63.65;;;23.92;;
19207;SDS011;9737;59.466;18.036;2024-03-02T01:53:47;67.53;;;25.08;;
19207;SDS011;9737;59.466;18.036;2024-03-02T01:56:17;86.78;;;25.83;;
19207;SDS011;9737;59.466;18.036;2024-03-02T01:58:45;70.60;;;24.90;;
19207;SDS011;9737;59.466;18.036;2024-03-02T02:01:13;69.30;;;25.40;;
19207;SDS011;9737;59.466;18.036;2024-03-02T02:03:42;81.68;;;25.17;;
19207;SDS011;9737;59.466;18.036;2024-03-02T02:06:11;71.07;;;24.40;;
19207;SDS011;9737;59.466;18.036;2024-03-02T02:08:40;87.03;;;26.05;;
19207;SDS011;9737;59.466;18.036;2024-03-02T02:11:07;76.97;;;26.27;;
19207;SDS011;9737;59.466;18.036;2024-03-02T02:13:37;85.65;;;26.52;;
19207;SDS011;9737;59.466;18.036;2024-03-02T02:16:05;78.32;;;26.33;;
19207;SDS011;9737;59.466;18.036;2024-03-02T02:18:34;74.45;;;25.38;;
19207;SDS011;9737;59.466;18.036;2024-03-02T02:21:02;83.47;;;25.92;;
19207;SDS011;9737;59.466;18.036;2024-03-02T02:23:32;79.45;;;27.90;;
19207;SDS011;9737;59.466;18.036;2024-03-02T02:26:00;86.78;;;26.67;;
19207;SDS011;9737;59.466;18.036;2024-03-02T02:28:30;87.55;;;28.67;;
19207;SDS011;9737;59.466;18.036;2024-03-02T02:30:58;78.45;;;27.45;;
19207;SDS011;9737;59.466;18.036;2024-03-02T02:33:27;90.97;;;27.20;;
19207;SDS011;9737;59.466;18.036;2024-03-02T02:35:55;79.15;;;26.02;;
19207;SDS011;9737;59.466;18.036;2024-03-02T02:38:23;83.65;;;28.77;;
19207;SDS011;9737;59.466;18.036;2024-03-02T02:40:52;86.72;;;27.65;;
19207;SDS011;9737;59.466;18.036;2024-03-02T02:43:20;91.38;;;28.58;;
19207;SDS011;9737;59.466;18.036;2024-03-02T02:45:48;93.50;;;28.38;;
19207;SDS011;9737;59.466;18.036;2024-03-02T02:48:16;89.47;;;27.48;;
19207;SDS011;9737;59.466;18.036;2024-03-02T02:50:44;88.43;;;28.33;;
19207;SDS011;9737;59.466;18.036;2024-03-02T02:53:13;90.35;;;28.80;;
19207;SDS011;9737;59.466;18.036;2024-03-02T02:55:41;82.97;;;28.42;;
19207;SDS011;9737;59.466;18.036;2024-03-02T02:58:11;87.60;;;29.58;;
19207;SDS011;9737;59.466;18.036;2024-03-02T03:00:39;88.53;;;29.20;;
19207;SDS011;9737;59.466;18.036;2024-03-02T03:03:08;83.18;;;27.88;;
19207;SDS011;9737;59.466;18.036;2024-03-02T03:05:36;83.32;;;28.48;;
19207;SDS011;9737;59.466;18.036;2024-03-02T03:08:04;102.28;;;30.90;;
19207;SDS011;9737;59.466;18.036;2024-03-02T03:10:31;84.15;;;29.02;;
19207;SDS011;9737;59.466;18.036;2024-03-02T03:12:59;97.97;;;30.92;;
19207;SDS011;9737;59.466;18.036;2024-03-02T03:15:29;89.28;;;29.92;;
19207;SDS011;9737;59.466;18.036;2024-03-02T03:17:57;93.53;;;30.20;;
19207;SDS011;9737;59.466;18.036;2024-03-02T03:20:25;85.13;;;29.77;;
19207;SDS011;9737;59.466;18.036;2024-03-02T03:22:53;92.63;;;30.25;;
19207;SDS011;9737;59.466;18.036;2024-03-02T03:25:20;99.10;;;31.48;;
19207;SDS011;9737;59.466;18.036;2024-03-02T03:27:48;95.97;;;30.08;;
19207;SDS011;9737;59.466;18.036;2024-03-02T03:30:18;91.68;;;29.92;;
19207;SDS011;9737;59.466;18.036;2024-03-02T03:32:47;96.85;;;30.52;;
19207;SDS011;9737;59.466;18.036;2024-03-02T03:35:15;96.25;;;31.30;;
19207;SDS011;9737;59.466;18.036;2024-03-02T03:37:44;102.30;;;30.42;;
19207;SDS011;9737;59.466;18.036;2024-03-02T03:40:12;97.13;;;31.35;;
19207;SDS011;9737;59.466;18.036;2024-03-02T03:42:41;92.82;;;30.45;;
19207;SDS011;9737;59.466;18.036;2024-03-02T03:45:09;101.82;;;31.00;;
19207;SDS011;9737;59.466;18.036;2024-03-02T03:47:37;98.28;;;30.60;;
19207;SDS011;9737;59.466;18.036;2024-03-02T03:50:07;92.40;;;31.20;;
19207;SDS011;9737;59.466;18.036;2024-03-02T03:52:35;113.07;;;32.22;;
19207;SDS011;9737;59.466;18.036;2024-03-02T03:55:04;107.15;;;32.38;;
19207;SDS011;9737;59.466;18.036;2024-03-02T03:57:32;95.40;;;30.02;;
19207;SDS011;9737;59.466;18.036;2024-03-02T04:00:01;101.53;;;31.67;;
19207;SDS011;9737;59.466;18.036;2024-03-02T04:02:28;99.40;;;30.80;;
19207;SDS011;9737;59.466;18.036;2024-03-02T04:04:56;96.68;;;31.80;;
19207;SDS011;9737;59.466;18.036;2024-03-02T04:07:26;100.03;;;32.45;;
19207;SDS011;9737;59.466;18.036;2024-03-02T04:09:53;93.45;;;30.58;;
19207;SDS011;9737;59.466;18.036;2024-03-02T04:12:22;106.10;;;31.77;;
19207;SDS011;9737;59.466;18.036;2024-03-02T04:14:50;102.10;;;30.65;;
19207;SDS011;9737;59.466;18.036;2024-03-02T04:17:18;93.45;;;29.38;;
19207;SDS011;9737;59.466;18.036;2024-03-02T04:19:45;103.40;;;31.52;;
19207;SDS011;9737;59.466;18.036;2024-03-02T04:22:14;90.80;;;29.90;;
19207;SDS011;9737;59.466;18.036;2024-03-02T04:24:52;84.45;;;29.05;;
19207;SDS011;9737;59.466;18.036;2024-03-02T04:27:20;96.25;;;30.58;;
19207;SDS011;9737;59.466;18.036;2024-03-02T04:29:48;97.53;;;29.67;;
19207;SDS011;9737;59.466;18.036;2024-03-02T04:32:16;91.38;;;28.98;;
19207;SDS011;9737;59.466;18.036;2024-03-02T04:34:46;95.43;;;30.45;;
19207;SDS011;9737;59.466;18.036;2024-03-02T04:37:13;96.15;;;29.65;;
19207;SDS011;9737;59.466;18.036;2024-03-02T04:39:42;101.65;;;29.10;;
19207;SDS011;9737;59.466;18.036;2024-03-02T04:42:11;96.03;;;29.58;;
19207;SDS011;9737;59.466;18.036;2024-03-02T04:44:39;88.70;;;29.60;;
19207;SDS011;9737;59.466;18.036;2024-03-02T04:47:07;93.90;;;29.70;;
19207;SDS011;9737;59.466;18.036;2024-03-02T04:49:34;90.47;;;28.98;;
19207;SDS011;9737;59.466;18.036;2024-03-02T04:52:03;94.22;;;30.90;;
19207;SDS011;9737;59.466;18.036;2024-03-02T04:54:31;97.65;;;30.15;;
19207;SDS011;9737;59.466;18.036;2024-03-02T04:57:01;97.90;;;29.42;;
19207;SDS011;9737;59.466;18.036;2024-03-02T04:59:30;102.22;;;29.42;;
19207;SDS011;9737;59.466;18.036;2024-03-02T05:01:58;100.55;;;30.80;;
19207;SDS011;9737;59.466;18.036;2024-03-02T05:04:26;104.22;;;31.23;;
19207;SDS011;9737;59.466;18.036;2024-03-02T05:06:54;99.25;;;31.05;;
19207;SDS011;9737;59.466;18.036;2024-03-02T05:09:24;96.22;;;32.33;;
19207;SDS011;9737;59.466;18.036;2024-03-02T05:11:52;89.45;;;28.73;;
19207;SDS011;9737;59.466;18.036;2024-03-02T05:14:39;95.55;;;29.52;;
19207;SDS011;9737;59.466;18.036;2024-03-02T05:17:07;100.50;;;30.48;;
19207;SDS011;9737;59.466;18.036;2024-03-02T05:19:35;108.55;;;30.98;;
19207;SDS011;9737;59.466;18.036;2024-03-02T05:22:03;85.55;;;29.83;;
19207;SDS011;9737;59.466;18.036;2024-03-02T05:24:32;104.70;;;31.70;;
19207;SDS011;9737;59.466;18.036;2024-03-02T05:27:00;99.85;;;31.02;;
19207;SDS011;9737;59.466;18.036;2024-03-02T05:29:28;94.90;;;30.23;;
19207;SDS011;9737;59.466;18.036;2024-03-02T05:31:57;95.90;;;30.63;;
19207;SDS011;9737;59.466;18.036;2024-03-02T05:34:25;96.32;;;30.58;;
19207;SDS011;9737;59.466;18.036;2024-03-02T05:36:53;96.00;;;29.35;;
19207;SDS011;9737;59.466;18.036;2024-03-02T05:39:21;109.35;;;30.73;;
19207;SDS011;9737;59.466;18.036;2024-03-02T05:41:49;101.95;;;29.90;;
19207;SDS011;9737;59.466;18.036;2024-03-02T05:44:17;102.65;;;30.15;;
19207;SDS011;9737;59.466;18.036;2024-03-02T05:46:45;109.30;;;31.85;;
19207;SDS011;9737;59.466;18.036;2024-03-02T05:49:15;108.03;;;30.75;;
19207;SDS011;9737;59.466;18.036;2024-03-02T05:51:42;110.20;;;30.83;;
19207;SDS011;9737;59.466;18.036;2024-03-02T05:54:10;108.88;;;31.02;;
19207;SDS011;9737;59.466;18.036;2024-03-02T05:56:39;109.85;;;32.20;;
19207;SDS011;9737;59.466;18.036;2024-03-02T05:59:07;106.38;;;31.58;;
19207;SDS011;9737;59.466;18.036;2024-03-02T06:01:39;106.50;;;31.30;;
19207;SDS011;9737;59.466;18.036;2024-03-02T06:04:08;115.95;;;32.15;;
19207;SDS011;9737;59.466;18.036;2024-03-02T06:06:38;110.85;;;31.08;;
19207;SDS011;9737;59.466;18.036;2024-03-02T06:09:07;108.55;;;31.13;;
19207;SDS011;9737;59.466;18.036;2024-03-02T06:11:35;103.95;;;31.38;;
19207;SDS011;9737;59.466;18.036;2024-03-02T06:14:03;125.88;;;33.80;;
19207;SDS011;9737;59.466;18.036;2024-03-02T06:16:33;111.50;;;32.20;;
19207;SDS011;9737;59.466;18.036;2024-03-02T06:19:01;95.00;;;30.98;;
19207;SDS011;9737;59.466;18.036;2024-03-02T06:21:29;104.07;;;31.58;;
19207;SDS011;9737;59.466;18.036;2024-03-02T06:23:59;98.35;;;30.88;;
19207;SDS011;9737;59.466;18.036;2024-03-02T06:26:27;100.75;;;31.73;;
19207;SDS011;9737;59.466;18.036;2024-03-02T06:28:56;108.40;;;32.53;;
19207;SDS011;9737;59.466;18.036;2024-03-02T06:31:24;95.32;;;31.85;;
19207;SDS011;9737;59.466;18.036;2024-03-02T06:33:51;110.45;;;32.55;;
19207;SDS011;9737;59.466;18.036;2024-03-02T06:36:19;113.43;;;31.38;;
19207;SDS011;9737;59.466;18.036;2024-03-02T06:38:47;94.13;;;31.42;;
19207;SDS011;9737;59.466;18.036;2024-03-02T06:41:16;103.57;;;30.80;;
19207;SDS011;9737;59.466;18.036;2024-03-02T06:43:44;95.60;;;30.67;;
19207;SDS011;9737;59.466;18.036;2024-03-02T06:46:13;101.53;;;32.13;;
19207;SDS011;9737;59.466;18.036;2024-03-02T06:48:41;104.65;;;31.20;;
19207;SDS011;9737;59.466;18.036;2024-03-02T06:51:09;92.07;;;29.48;;
19207;SDS011;9737;59.466;18.036;2024-03-02T06:53:38;96.75;;;30.05;;
19207;SDS011;9737;59.466;18.036;2024-03-02T06:56:06;94.88;;;30.00;;
19207;SDS011;9737;59.466;18.036;2024-03-02T06:58:37;88.47;;;28.75;;
19207;SDS011;9737;59.466;18.036;2024-03-02T07:01:05;78.63;;;28.55;;
19207;SDS011;9737;59.466;18.036;2024-03-02T07:03:33;92.63;;;28.83;;
19207;SDS011;9737;59.466;18.036;2024-03-02T07:06:01;78.05;;;27.67;;
19207;SDS011;9737;59.466;18.036;2024-03-02T07:08:29;81.38;;;28.63;;
19207;SDS011;9737;59.466;18.036;2024-03-02T07:10:57;78.97;;;28.42;;
19207;SDS011;9737;59.466;18.036;2024-03-02T07:13:25;82.22;;;27.58;;
19207;SDS011;9737;59.466;18.036;2024-03-02T07:15:54;76.85;;;27.20;;
19207;SDS011;9737;59.466;18.036;2024-03-02T07:18:49;82.82;;;27.00;;
19207;SDS011;9737;59.466;18.036;2024-03-02T07:21:18;69.50;;;26.63;;
19207;SDS011;9737;59.466;18.036;2024-03-02T07:23:48;80.40;;;27.50;;
19207;SDS011;9737;59.466;18.036;2024-03-02T07:26:16;84.05;;;25.63;;
19207;SDS011;9737;59.466;18.036;2024-03-02T07:28:48;80.65;;;27.17;;
19207;SDS011;9737;59.466;18.036;2024-03-02T07:31:17;70.93;;;27.17;;
19207;SDS011;9737;59.466;18.036;2024-03-02T07:33:45;77.78;;;26.42;;
19207;SDS011;9737;59.466;18.036;2024-03-02T07:36:14;68.60;;;24.40;;
19207;SDS011;9737;59.466;18.036;2024-03-02T07:38:42;63.88;;;24.05;;
19207;SDS011;9737;59.466;18.036;2024-03-02T07:41:11;70.72;;;23.13;;
19207;SDS011;9737;59.466;18.036;2024-03-02T07:43:39;60.67;;;23.33;;
19207;SDS011;9737;59.466;18.036;2024-03-02T07:46:07;69.38;;;23.50;;
19207;SDS011;9737;59.466;18.036;2024-03-02T07:48:37;57.20;;;23.30;;
19207;SDS011;9737;59.466;18.036;2024-03-02T07:51:05;55.95;;;22.63;;
19207;SDS011;9737;59.466;18.036;2024-03-02T07:53:33;63.78;;;22.48;;
19207;SDS011;9737;59.466;18.036;2024-03-02T07:56:01;56.95;;;22.25;;
19207;SDS011;9737;59.466;18.036;2024-03-02T07:58:29;59.67;;;21.55;;
19207;SDS011;9737;59.466;18.036;2024-03-02T08:00:58;58.45;;;20.73;;
19207;SDS011;9737;59.466;18.036;2024-03-02T08:03:28;47.85;;;19.45;;
19207;SDS011;9737;59.466;18.036;2024-03-02T08:05:57;48.28;;;19.83;;
19207;SDS011;9737;59.466;18.036;2024-03-02T08:08:25;46.92;;;19.42;;
19207;SDS011;9737;59.466;18.036;2024-03-02T08:10:53;51.17;;;20.98;;
19207;SDS011;9737;59.466;18.036;2024-03-02T08:13:21;43.55;;;18.65;;
19207;SDS011;9737;59.466;18.036;2024-03-02T08:15:48;48.22;;;18.65;;
19207;SDS011;9737;59.466;18.036;2024-03-02T08:18:16;41.67;;;17.85;;
19207;SDS011;9737;59.466;18.036;2024-03-02T08:20:45;39.90;;;18.40;;
19207;SDS011;9737;59.466;18.036;2024-03-02T08:23:15;50.10;;;18.50;;
19207;SDS011;9737;59.466;18.036;2024-03-02T08:25:42;38.55;;;16.98;;
19207;SDS011;9737;59.466;18.036;2024-03-02T08:28:11;47.65;;;17.30;;
19207;SDS011;9737;59.466;18.036;2024-03-02T08:30:39;40.67;;;16.95;;
19207;SDS011;9737;59.466;18.036;2024-03-02T08:33:07;40.65;;;17.65;;
19207;SDS011;9737;59.466;18.036;2024-03-02T08:35:35;36.35;;;17.08;;
19207;SDS011;9737;59.466;18.036;2024-03-02T08:38:03;40.75;;;16.60;;
19207;SDS011;9737;59.466;18.036;2024-03-02T08:40:33;41.40;;;17.85;;
19207;SDS011;9737;59.466;18.036;2024-03-02T08:43:01;40.65;;;16.20;;
19207;SDS011;9737;59.466;18.036;2024-03-02T08:45:29;38.17;;;16.90;;
19207;SDS011;9737;59.466;18.036;2024-03-02T08:47:57;48.80;;;16.60;;
19207;SDS011;9737;59.466;18.036;2024-03-02T08:50:25;44.47;;;16.27;;
19207;SDS011;9737;59.466;18.036;2024-03-02T08:52:53;44.22;;;16.90;;
19207;SDS011;9737;59.466;18.036;2024-03-02T08:55:21;37.70;;;16.35;;
19207;SDS011;9737;59.466;18.036;2024-03-02T08:57:50;37.90;;;17.02;;
19207;SDS011;9737;59.466;18.036;2024-03-02T09:00:18;44.03;;;16.58;;
19207;SDS011;9737;59.466;18.036;2024-03-02T09:02:46;43.30;;;18.23;;
19207;SDS011;9737;59.466;18.036;2024-03-02T09:05:14;41.88;;;16.80;;
19207;SDS011;9737;59.466;18.036;2024-03-02T09:07:42;45.03;;;17.00;;
19207;SDS011;9737;59.466;18.036;2024-03-02T09:10:10;39.92;;;16.30;;
19207;SDS011;9737;59.466;18.036;2024-03-02T09:12:38;41.35;;;18.02;;
19207;SDS011;9737;59.466;18.036;2024-03-02T09:15:09;37.20;;;16.42;;
19207;SDS011;9737;59.466;18.036;2024-03-02T09:17:37;39.15;;;17.25;;
19207;SDS011;9737;59.466;18.036;2024-03-02T09:20:05;36.65;;;15.88;;
19207;SDS011;9737;59.466;18.036;2024-03-02T09:22:33;40.03;;;16.17;;
19207;SDS011;9737;59.466;18.036;2024-03-02T09:25:01;47.13;;;16.60;;
19207;SDS011;9737;59.466;18.036;2024-03-02T09:27:29;37.40;;;16.45;;
19207;SDS011;9737;59.466;18.036;2024-03-02T09:29:57;31.48;;;15.65;;
19207;SDS011;9737;59.466;18.036;2024-03-02T09:32:26;36.88;;;17.40;;
19207;SDS011;9737;59.466;18.036;2024-03-02T09:34:55;41.83;;;16.75;;
19207;SDS011;9737;59.466;18.036;2024-03-02T09:37:25;39.42;;;16.75;;
19207;SDS011;9737;59.466;18.036;2024-03-02T09:39:53;43.22;;;17.55;;
19207;SDS011;9737;59.466;18.036;2024-03-02T09:42:21;36.03;;;16.40;;
19207;SDS011;9737;59.466;18.036;2024-03-02T09:44:50;39.97;;;15.77;;
19207;SDS011;9737;59.466;18.036;2024-03-02T09:47:18;38.58;;;17.00;;
19207;SDS011;9737;59.466;18.036;2024-03-02T09:49:47;36.80;;;16.85;;
19207;SDS011;9737;59.466;18.036;2024-03-02T09:52:16;33.05;;;16.25;;
19207;SDS011;9737;59.466;18.036;2024-03-02T09:54:43;35.10;;;16.00;;
19207;SDS011;9737;59.466;18.036;2024-03-02T09:57:11;34.85;;;14.95;;
19207;SDS011;9737;59.466;18.036;2024-03-02T09:59:39;36.30;;;16.20;;
19207;SDS011;9737;59.466;18.036;2024-03-02T10:02:07;36.25;;;14.95;;
19207;SDS011;9737;59.466;18.036;2024-03-02T10:04:35;38.30;;;15.82;;
19207;SDS011;9737;59.466;18.036;2024-03-02T10:07:11;35.85;;;15.10;;
19207;SDS011;9737;59.466;18.036;2024-03-02T10:09:40;34.53;;;15.65;;
19207;SDS011;9737;59.466;18.036;2024-03-02T10:12:09;32.80;;;14.65;;
19207;SDS011;9737;59.466;18.036;2024-03-02T10:14:38;37.95;;;15.52;;
19207;SDS011;9737;59.466;18.036;2024-03-02T10:17:07;39.10;;;15.18;;
19207;SDS011;9737;59.466;18.036;2024-03-02T10:19:36;30.67;;;14.77;;
19207;SDS011;9737;59.466;18.036;2024-03-02T10:22:06;38.10;;;14.75;;
19207;SDS011;9737;59.466;18.036;2024-03-02T10:24:36;39.30;;;17.15;;
19207;SDS011;9737;59.466;18.036;2024-03-02T10:27:08;37.42;;;15.30;;
19207;SDS011;9737;59.466;18.036;2024-03-02T10:29:37;31.95;;;15.32;;
19207;SDS011;9737;59.466;18.036;2024-03-02T10:32:08;33.42;;;15.05;;
19207;SDS011;9737;59.466;18.036;2024-03-02T10:34:38;35.38;;;15.73;;
19207;SDS011;9737;59.466;18.036;2024-03-02T10:37:07;37.90;;;16.15;;
19207;SDS011;9737;59.466;18.036;2024-03-02T10:39:37;37.25;;;15.38;;
19207;SDS011;9737;59.466;18.036;2024-03-02T10:42:07;30.17;;;15.52;;
19207;SDS011;9737;59.466;18.036;2024-03-02T10:44:35;36.47;;;15.98;;
19207;SDS011;9737;59.466;18.036;2024-03-02T10:47:03;32.83;;;13.98;;
19207;SDS011;9737;59.466;18.036;2024-03-02T10:49:32;31.35;;;15.85;;
19207;SDS011;9737;59.466;18.036;2024-03-02T10:52:01;29.90;;;14.75;;
19207;SDS011;9737;59.466;18.036;2024-03-02T10:54:30;34.80;;;15.32;;
19207;SDS011;9737;59.466;18.036;2024-03-02T10:57:05;34.90;;;14.77;;
19207;SDS011;9737;59.466;18.036;2024-03-02T10:59:36;36.38;;;15.60;;
19207;SDS011;9737;59.466;18.036;2024-03-02T11:02:06;38.13;;;15.95;;
19207;SDS011;9737;59.466;18.036;2024-03-02T11:04:38;36.35;;;15.65;;
19207;SDS011;9737;59.466;18.036;2024-03-02T11:07:08;35.42;;;14.52;;
19207;SDS011;9737;59.466;18.036;2024-03-02T11:09:39;35.28;;;15.75;;
19207;SDS011;9737;59.466;18.036;2024-03-02T11:12:12;36.30;;;14.80;;
19207;SDS011;9737;59.466;18.036;2024-03-02T11:14:44;36.97;;;15.15;;
19207;SDS011;9737;59.466;18.036;2024-03-02T11:17:13;35.42;;;15.85;;
19207;SDS011;9737;59.466;18.036;2024-03-02T11:19:43;39.63;;;15.05;;
19207;SDS011;9737;59.466;18.036;2024-03-02T11:22:12;36.13;;;15.63;;
19207;SDS011;9737;59.466;18.036;2024-03-02T11:24:47;32.90;;;15.68;;
19207;SDS011;9737;59.466;18.036;2024-03-02T11:27:20;33.60;;;16.10;;
19207;SDS011;9737;59.466;18.036;2024-03-02T11:33:26;33.47;;;15.07;;
19207;SDS011;9737;59.466;18.036;2024-03-02T11:35:57;34.85;;;14.98;;
19207;SDS011;9737;59.466;18.036;2024-03-02T11:38:32;31.83;;;14.90;;
19207;SDS011;9737;59.466;18.036;2024-03-02T11:41:01;27.85;;;14.27;;
19207;SDS011;9737;59.466;18.036;2024-03-02T11:43:32;36.35;;;14.98;;
19207;SDS011;9737;59.466;18.036;2024-03-02T11:46:00;34.35;;;14.85;;
19207;SDS011;9737;59.466;18.036;2024-03-02T11:48:31;28.50;;;14.55;;
19207;SDS011;9737;59.466;18.036;2024-03-02T11:50:59;28.73;;;14.20;;
19207;SDS011;9737;59.466;18.036;2024-03-02T11:53:28;34.95;;;15.00;;
19207;SDS011;9737;59.466;18.036;2024-03-02T11:55:59;35.60;;;14.73;;
19207;SDS011;9737;59.466;18.036;2024-03-02T11:58:29;36.50;;;13.70;;
19207;SDS011;9737;59.466;18.036;2024-03-02T12:00:59;36.40;;;14.75;;
19207;SDS011;9737;59.466;18.036;2024-03-02T12:03:27;33.17;;;14.77;;
19207;SDS011;9737;59.466;18.036;2024-03-02T12:05:55;32.35;;;14.80;;
19207;SDS011;9737;59.466;18.036;2024-03-02T12:08:24;32.53;;;14.07;;
19207;SDS011;9737;59.466;18.036;2024-03-02T12:10:55;34.65;;;14.23;;
19207;SDS011;9737;59.466;18.036;2024-03-02T12:13:27;31.98;;;14.70;;
19207;SDS011;9737;59.466;18.036;2024-03-02T12:15:55;34.72;;;14.82;;
19207;SDS011;9737;59.466;18.036;2024-03-02T12:18:25;29.92;;;14.27;;
19207;SDS011;9737;59.466;18.036;2024-03-02T12:20:54;32.50;;;14.40;;
19207;SDS011;9737;59.466;18.036;2024-03-02T12:23:24;31.45;;;14.55;;
19207;SDS011;9737;59.466;18.036;2024-03-02T12:25:53;29.30;;;14.23;;
19207;SDS011;9737;59.466;18.036;2024-03-02T12:28:21;33.10;;;14.90;;
19207;SDS011;9737;59.466;18.036;2024-03-02T12:30:49;27.25;;;14.32;;
19207;SDS011;9737;59.466;18.036;2024-03-02T12:33:18;32.05;;;14.05;;
19207;SDS011;9737;59.466;18.036;2024-03-02T12:35:50;34.00;;;14.35;;
19207;SDS011;9737;59.466;18.036;2024-03-02T12:38:17;27.85;;;13.77;;
19207;SDS011;9737;59.466;18.036;2024-03-02T12:40:47;31.10;;;14.07;;
19207;SDS011;9737;59.466;18.036;2024-03-02T12:43:16;26.77;;;13.88;;
19207;SDS011;9737;59.466;18.036;2024-03-02T12:45:44;28.60;;;14.40;;
19207;SDS011;9737;59.466;18.036;2024-03-02T12:48:12;35.28;;;13.80;;
19207;SDS011;9737;59.466;18.036;2024-03-02T12:50:41;29.88;;;13.02;;
19207;SDS011;9737;59.466;18.036;2024-03-02T12:53:15;35.60;;;13.70;;
19207;SDS011;9737;59.466;18.036;2024-03-02T12:55:43;33.85;;;13.35;;
19207;SDS011;9737;59.466;18.036;2024-03-02T12:58:16;37.30;;;14.32;;
19207;SDS011;9737;59.466;18.036;2024-03-02T13:00:44;30.27;;;13.48;;
19207;SDS011;9737;59.466;18.036;2024-03-02T13:03:13;32.90;;;13.95;;
19207;SDS011;9737;59.466;18.036;2024-03-02T13:05:41;29.67;;;12.68;;
19207;SDS011;9737;59.466;18.036;2024-03-02T13:08:11;27.42;;;13.88;;
19207;SDS011;9737;59.466;18.036;2024-03-02T13:10:40;29.35;;;13.13;;
19207;SDS011;9737;59.466;18.036;2024-03-02T13:13:08;29.17;;;14.25;;
19207;SDS011;9737;59.466;18.036;2024-03-02T13:15:36;28.85;;;13.77;;
19207;SDS011;9737;59.466;18.036;2024-03-02T13:18:06;31.83;;;13.82;;
19207;SDS011;9737;59.466;18.036;2024-03-02T13:20:35;35.08;;;13.38;;
19207;SDS011;9737;59.466;18.036;2024-03-02T13:23:03;35.35;;;13.63;;
19207;SDS011;9737;59.466;18.036;2024-03-02T13:25:31;29.40;;;12.68;;
19207;SDS011;9737;59.466;18.036;2024-03-02T13:28:01;24.52;;;13.55;;
19207;SDS011;9737;59.466;18.036;2024-03-02T13:30:29;30.92;;;12.65;;
19207;SDS011;9737;59.466;18.036;2024-03-02T13:32:57;28.77;;;13.02;;
19207;SDS011;9737;59.466;18.036;2024-03-02T13:35:25;32.63;;;14.65;;
19207;SDS011;9737;59.466;18.036;2024-03-02T13:37:53;28.77;;;13.20;;
19207;SDS011;9737;59.466;18.036;2024-03-02T13:40:21;27.50;;;12.75;;
19207;SDS011;9737;59.466;18.036;2024-03-02T13:42:50;35.58;;;13.50;;
19207;SDS011;9737;59.466;18.036;2024-03-02T13:45:21;29.48;;;13.88;;
19207;SDS011;9737;59.466;18.036;2024-03-02T13:47:49;33.50;;;12.82;;
19207;SDS011;9737;59.466;18.036;2024-03-02T13:50:18;28.15;;;13.02;;
19207;SDS011;9737;59.466;18.036;2024-03-02T13:52:46;27.67;;;13.73;;
19207;SDS011;9737;59.466;18.036;2024-03-02T13:55:14;31.65;;;14.13;;
19207;SDS011;9737;59.466;18.036;2024-03-02T13:57:42;29.85;;;14.05;;
19207;SDS011;9737;59.466;18.036;2024-03-02T14:00:10;29.75;;;12.60;;
19207;SDS011;9737;59.466;18.036;2024-03-02T14:02:41;30.63;;;13.82;;
19207;SDS011;9737;59.466;18.036;2024-03-02T14:05:09;28.35;;;13.60;;
19207;SDS011;9737;59.466;18.036;2024-03-02T14:07:38;33.00;;;13.85;;
19207;SDS011;9737;59.466;18.036;2024-03-02T14:10:06;30.00;;;13.38;;
19207;SDS011;9737;59.466;18.036;2024-03-02T14:12:35;26.42;;;13.55;;
19207;SDS011;9737;59.466;18.036;2024-03-02T14:15:04;33.25;;;14.15;;
19207;SDS011;9737;59.466;18.036;2024-03-02T14:17:33;25.60;;;13.32;;
19207;SDS011;9737;59.466;18.036;2024-03-02T14:20:05;33.40;;;13.63;;
19207;SDS011;9737;59.466;18.036;2024-03-02T14:22:36;25.38;;;13.13;;
19207;SDS011;9737;59.466;18.036;2024-03-02T14:25:04;25.30;;;13.27;;
19207;SDS011;9737;59.466;18.036;2024-03-02T14:27:33;29.63;;;13.18;;
19207;SDS011;9737;59.466;18.036;2024-03-02T14:30:21;32.33;;;13.07;;
19207;SDS011;9737;59.466;18.036;2024-03-02T14:32:49;35.28;;;14.10;;
19207;SDS011;9737;59.466;18.036;2024-03-02T14:35:19;28.10;;;13.10;;